createdAt,value
2018-11-23T00:00:53.380Z,0.00
2018-11-23T00:01:53.325Z,0.00
2018-11-23T00:02:53.295Z,0.00
2018-11-23T00:03:53.262Z,0.00
2018-11-23T00:04:53.202Z,0.00
2018-11-23T00:05:53.151Z,0.00
2018-11-23T00:06:53.108Z,0.00
2018-11-23T00:07:53.089Z,0.00
2018-11-23T00:08:53.061Z,0.00
2018-11-23T00:09:52.976Z,0.00
2018-11-23T00:10:52.953Z,0.00
2018-11-23T00:11:52.919Z,0.00
2018-11-23T00:12:52.864Z,0.00
2018-11-23T00:13:52.804Z,0.00
2018-11-23T00:14:52.796Z,0.00
2018-11-23T00:15:52.717Z,0.00
2018-11-23T00:16:52.697Z,0.00
2018-11-23T00:17:52.665Z,0.00
2018-11-23T00:18:52.612Z,0.00
2018-11-23T00:19:52.564Z,0.00
2018-11-23T00:20:52.543Z,0.00
2018-11-23T00:21:52.485Z,0.00
2018-11-23T00:22:52.425Z,0.00
2018-11-23T00:23:52.385Z,0.00
2018-11-23T00:24:52.340Z,0.00
2018-11-23T00:25:52.328Z,0.00
2018-11-23T00:26:52.260Z,0.00
2018-11-23T00:27:52.230Z,0.00
2018-11-23T00:28:52.156Z,0.00
2018-11-23T00:29:52.129Z,0.00
2018-11-23T00:30:52.082Z,0.00
2018-11-23T00:31:52.040Z,0.00
2018-11-23T00:32:52.002Z,0.00
2018-11-23T00:33:51.940Z,0.00
2018-11-23T00:34:51.911Z,0.00
2018-11-23T00:35:51.884Z,0.00
2018-11-23T00:36:51.817Z,0.00
2018-11-23T00:37:51.774Z,0.00
2018-11-23T00:38:51.737Z,0.00
2018-11-23T00:39:51.705Z,0.00
2018-11-23T00:40:51.669Z,0.00
2018-11-23T00:41:51.603Z,0.00
2018-11-23T00:42:51.565Z,0.00
2018-11-23T00:43:51.546Z,0.00
2018-11-23T00:44:51.474Z,0.00
2018-11-23T00:45:51.435Z,0.00
2018-11-23T00:46:51.392Z,0.00
2018-11-23T00:47:51.344Z,0.00
2018-11-23T00:48:51.301Z,0.00
2018-11-23T00:49:51.265Z,0.00
2018-11-23T00:50:51.225Z,0.00
2018-11-23T00:51:51.179Z,0.00
2018-11-23T00:52:51.142Z,0.00
2018-11-23T00:53:51.098Z,0.00
2018-11-23T00:54:51.035Z,0.00
2018-11-23T00:55:51.016Z,0.00
2018-11-23T00:56:50.959Z,0.00
2018-11-23T00:57:50.928Z,0.00
2018-11-23T00:58:50.881Z,0.00
2018-11-23T00:59:50.834Z,0.00
2018-11-23T01:00:50.799Z,0.00
2018-11-23T01:01:50.752Z,0.00
2018-11-23T01:02:50.704Z,0.00
2018-11-23T01:03:50.664Z,0.00
2018-11-23T01:04:50.631Z,0.00
2018-11-23T01:05:50.601Z,0.00
2018-11-23T01:06:50.541Z,0.00
2018-11-23T01:07:50.487Z,0.00
2018-11-23T01:08:50.452Z,0.00
2018-11-23T01:09:50.424Z,0.00
2018-11-23T01:10:50.362Z,0.00
2018-11-23T01:11:50.330Z,0.00
2018-11-23T01:12:50.280Z,0.00
2018-11-23T01:13:50.230Z,0.00
2018-11-23T01:14:50.204Z,0.00
2018-11-23T01:15:50.155Z,0.00
2018-11-23T01:16:50.125Z,0.00
2018-11-23T01:17:50.067Z,0.00
2018-11-23T01:18:50.027Z,0.00
2018-11-23T01:19:49.985Z,0.00
2018-11-23T01:20:49.937Z,0.00
2018-11-23T01:21:49.889Z,0.00
2018-11-23T01:22:49.865Z,0.00
2018-11-23T01:23:49.812Z,0.00
2018-11-23T01:24:49.770Z,0.00
2018-11-23T01:25:49.717Z,0.00
2018-11-23T01:26:49.690Z,0.00
2018-11-23T01:27:49.642Z,0.00
2018-11-23T01:28:49.586Z,0.00
2018-11-23T01:29:49.547Z,0.00
2018-11-23T01:30:49.518Z,0.00
2018-11-23T01:31:49.468Z,0.00
2018-11-23T01:32:49.424Z,0.00
2018-11-23T01:33:49.393Z,0.00
2018-11-23T01:34:49.334Z,0.00
2018-11-23T01:35:49.298Z,0.00
2018-11-23T01:36:49.267Z,0.00
2018-11-23T01:37:49.223Z,0.00
2018-11-23T01:38:49.157Z,0.00
2018-11-23T01:39:49.123Z,0.00
2018-11-23T01:40:49.073Z,0.00
2018-11-23T01:41:49.033Z,0.00
2018-11-23T01:42:49.018Z,0.00
2018-11-23T01:43:48.986Z,0.00
2018-11-23T01:44:48.916Z,0.00
2018-11-23T01:45:48.874Z,0.00
2018-11-23T01:46:48.818Z,0.00
2018-11-23T01:47:48.798Z,0.00
2018-11-23T01:48:48.742Z,0.00
2018-11-23T01:49:48.680Z,0.00
2018-11-23T01:50:48.653Z,0.00
2018-11-23T01:51:48.627Z,0.00
2018-11-23T01:52:48.571Z,0.00
2018-11-23T01:53:48.533Z,0.00
2018-11-23T01:54:48.505Z,0.00
2018-11-23T01:55:48.444Z,0.00
2018-11-23T01:56:48.396Z,0.00
2018-11-23T01:57:48.356Z,0.00
2018-11-23T01:58:48.306Z,0.00
2018-11-23T01:59:48.261Z,0.00
2018-11-23T02:00:48.213Z,0.00
2018-11-23T02:01:48.173Z,0.00
2018-11-23T02:02:48.128Z,0.00
2018-11-23T02:03:48.143Z,0.00
2018-11-23T02:04:48.053Z,0.00
2018-11-23T02:05:48.004Z,0.00
2018-11-23T02:06:47.962Z,0.00
2018-11-23T02:07:47.927Z,0.00
2018-11-23T02:08:47.901Z,0.00
2018-11-23T02:09:47.821Z,0.00
2018-11-23T02:10:47.792Z,0.00
2018-11-23T02:11:47.745Z,0.00
2018-11-23T02:12:47.702Z,0.00
2018-11-23T02:14:02.372Z,0.00
2018-11-23T02:14:47.622Z,0.00
2018-11-23T02:15:47.601Z,0.00
2018-11-23T02:16:47.558Z,0.00
2018-11-23T02:17:47.533Z,0.00
2018-11-23T02:18:47.472Z,0.00
2018-11-23T02:19:47.415Z,0.00
2018-11-23T02:20:47.380Z,0.00
2018-11-23T02:21:47.362Z,0.00
2018-11-23T02:22:47.284Z,0.00
2018-11-23T02:23:53.872Z,0.00
2018-11-23T02:24:47.221Z,0.00
2018-11-23T02:25:47.175Z,0.00
2018-11-23T02:26:47.104Z,0.00
2018-11-23T02:27:47.099Z,0.00
2018-11-23T02:28:47.053Z,0.00
2018-11-23T02:29:46.986Z,0.00
2018-11-23T02:30:46.945Z,0.00
2018-11-23T02:31:46.886Z,0.00
2018-11-23T02:32:46.846Z,0.00
2018-11-23T02:33:46.813Z,0.00
2018-11-23T02:34:46.766Z,0.00
2018-11-23T02:35:46.720Z,0.00
2018-11-23T02:36:46.695Z,0.00
2018-11-23T02:37:46.630Z,0.00
2018-11-23T02:38:46.600Z,0.00
2018-11-23T02:39:46.546Z,0.00
2018-11-23T02:40:46.515Z,0.00
2018-11-23T02:41:46.455Z,0.00
2018-11-23T02:42:46.426Z,0.00
2018-11-23T02:43:46.376Z,0.00
2018-11-23T02:44:46.345Z,0.00
2018-11-23T02:45:46.298Z,0.00
2018-11-23T02:46:46.256Z,0.00
2018-11-23T02:47:46.228Z,0.00
2018-11-23T02:48:46.185Z,0.00
2018-11-23T02:49:46.242Z,0.00
2018-11-23T02:50:46.087Z,0.00
2018-11-23T02:51:46.049Z,0.00
2018-11-23T02:52:46.016Z,0.00
2018-11-23T02:53:45.962Z,0.00
2018-11-23T02:54:45.923Z,0.00
2018-11-23T02:55:45.861Z,0.00
2018-11-23T02:56:45.824Z,0.00
2018-11-23T02:57:45.783Z,0.00
2018-11-23T02:58:45.746Z,0.00
2018-11-23T02:59:45.692Z,0.00
2018-11-23T03:00:45.663Z,0.00
2018-11-23T03:01:45.616Z,0.00
2018-11-23T03:02:45.553Z,0.00
2018-11-23T03:03:45.523Z,0.00
2018-11-23T03:04:45.470Z,0.00
2018-11-23T03:05:45.435Z,0.00
2018-11-23T03:06:45.398Z,0.00
2018-11-23T03:07:45.374Z,0.00
2018-11-23T03:08:45.303Z,0.00
2018-11-23T03:09:45.277Z,0.00
2018-11-23T03:10:45.223Z,0.00
2018-11-23T03:11:45.185Z,0.00
2018-11-23T03:12:45.143Z,0.00
2018-11-23T03:13:45.102Z,0.00
2018-11-23T03:14:45.066Z,0.00
2018-11-23T03:15:45.009Z,0.00
2018-11-23T03:16:44.959Z,0.00
2018-11-23T03:17:44.934Z,0.00
2018-11-23T03:18:44.901Z,0.00
2018-11-23T03:19:44.880Z,0.00
2018-11-23T03:20:44.814Z,0.00
2018-11-23T03:21:44.782Z,0.00
2018-11-23T03:22:44.725Z,0.00
2018-11-23T03:23:44.678Z,0.00
2018-11-23T03:24:44.628Z,0.00
2018-11-23T03:25:44.591Z,0.00
2018-11-23T03:26:44.538Z,0.00
2018-11-23T03:27:44.501Z,0.00
2018-11-23T03:28:44.458Z,0.00
2018-11-23T03:29:44.421Z,0.00
2018-11-23T03:30:44.422Z,0.00
2018-11-23T03:31:44.339Z,0.00
2018-11-23T03:32:44.305Z,0.00
2018-11-23T03:33:44.246Z,0.00
2018-11-23T03:34:44.222Z,0.00
2018-11-23T03:35:44.205Z,0.00
2018-11-23T03:36:44.124Z,0.00
2018-11-23T03:37:44.928Z,0.00
2018-11-23T03:38:44.076Z,0.00
2018-11-23T03:39:43.996Z,0.00
2018-11-23T03:40:43.936Z,0.00
2018-11-23T03:41:43.926Z,0.00
2018-11-23T03:42:43.883Z,0.00
2018-11-23T03:43:43.809Z,0.00
2018-11-23T03:44:43.795Z,0.00
2018-11-23T03:45:43.728Z,0.00
2018-11-23T03:46:43.718Z,0.00
2018-11-23T03:47:43.684Z,0.00
2018-11-23T03:48:43.597Z,0.00
2018-11-23T03:49:43.569Z,0.00
2018-11-23T03:50:43.523Z,0.00
2018-11-23T03:51:43.473Z,0.00
2018-11-23T03:52:43.452Z,0.00
2018-11-23T03:53:43.426Z,0.00
2018-11-23T03:54:43.371Z,0.00
2018-11-23T03:55:43.308Z,0.00
2018-11-23T03:56:43.255Z,0.00
2018-11-23T03:57:43.244Z,0.00
2018-11-23T03:58:43.189Z,0.00
2018-11-23T03:59:43.123Z,0.00
2018-11-23T04:00:43.084Z,0.00
2018-11-23T04:01:43.072Z,0.00
2018-11-23T04:02:43.031Z,0.00
2018-11-23T04:03:42.953Z,0.00
2018-11-23T04:04:42.932Z,0.00
2018-11-23T04:05:42.872Z,0.00
2018-11-23T04:06:42.832Z,0.00
2018-11-23T04:07:42.787Z,0.00
2018-11-23T04:08:42.747Z,0.00
2018-11-23T04:09:42.722Z,0.00
2018-11-23T04:10:42.667Z,0.00
2018-11-23T04:11:42.624Z,0.00
2018-11-23T04:12:42.564Z,0.00
2018-11-23T04:13:42.536Z,0.00
2018-11-23T04:14:42.486Z,0.00
2018-11-23T04:15:42.443Z,0.00
2018-11-23T04:16:42.410Z,0.00
2018-11-23T04:17:42.358Z,0.00
2018-11-23T04:18:42.337Z,0.00
2018-11-23T04:19:42.295Z,0.00
2018-11-23T04:20:42.230Z,0.00
2018-11-23T04:21:42.197Z,0.00
2018-11-23T04:22:42.156Z,0.00
2018-11-23T04:23:42.155Z,0.00
2018-11-23T04:24:42.085Z,0.00
2018-11-23T04:25:42.047Z,0.00
2018-11-23T04:26:41.977Z,0.00
2018-11-23T04:27:41.972Z,0.00
2018-11-23T04:28:41.898Z,0.00
2018-11-23T04:29:41.870Z,0.00
2018-11-23T04:30:41.813Z,0.00
2018-11-23T04:31:41.825Z,0.00
2018-11-23T04:32:41.734Z,0.00
2018-11-23T04:33:41.693Z,0.00
2018-11-23T04:34:41.637Z,0.00
2018-11-23T04:35:41.600Z,0.00
2018-11-23T04:36:41.555Z,0.00
2018-11-23T04:37:41.514Z,0.00
2018-11-23T04:38:41.459Z,0.00
2018-11-23T04:39:41.436Z,0.00
2018-11-23T04:40:41.384Z,0.00
2018-11-23T04:41:46.190Z,0.00
2018-11-23T04:42:41.285Z,0.00
2018-11-23T04:43:41.247Z,0.00
2018-11-23T04:44:41.219Z,0.00
2018-11-23T04:45:41.163Z,0.00
2018-11-23T04:46:41.118Z,0.00
2018-11-23T04:47:41.079Z,0.00
2018-11-23T04:48:41.029Z,0.00
2018-11-23T04:49:40.997Z,0.00
2018-11-23T04:50:40.948Z,0.00
2018-11-23T04:51:40.907Z,0.00
2018-11-23T04:52:40.862Z,0.00
2018-11-23T04:53:40.812Z,0.00
2018-11-23T04:54:40.775Z,0.00
2018-11-23T04:55:40.736Z,0.00
2018-11-23T04:56:40.705Z,0.00
2018-11-23T04:57:40.666Z,0.00
2018-11-23T04:58:40.637Z,0.00
2018-11-23T04:59:40.564Z,0.00
2018-11-23T05:00:40.519Z,0.00
2018-11-23T05:01:40.470Z,0.00
2018-11-23T05:02:40.441Z,0.00
2018-11-23T05:03:40.417Z,0.00
2018-11-23T05:04:40.344Z,0.00
2018-11-23T05:05:40.295Z,0.00
2018-11-23T05:06:40.263Z,0.00
2018-11-23T05:07:40.212Z,0.00
2018-11-23T05:08:40.169Z,0.00
2018-11-23T05:09:40.129Z,0.00
2018-11-23T05:10:40.077Z,0.00
2018-11-23T05:11:40.108Z,0.00
2018-11-23T05:12:40.009Z,0.00
2018-11-23T05:13:39.958Z,0.00
2018-11-23T05:14:39.924Z,0.00
2018-11-23T05:15:39.862Z,0.00
2018-11-23T05:16:39.822Z,0.00
2018-11-23T05:17:39.797Z,0.00
2018-11-23T05:18:39.776Z,0.00
2018-11-23T05:19:39.731Z,0.00
2018-11-23T05:20:39.682Z,0.00
2018-11-23T05:21:39.605Z,0.00
2018-11-23T05:22:39.571Z,0.00
2018-11-23T05:23:39.502Z,0.00
2018-11-23T05:24:39.480Z,0.00
2018-11-23T05:25:39.448Z,0.00
2018-11-23T05:26:39.413Z,0.00
2018-11-23T05:27:39.334Z,0.00
2018-11-23T05:28:39.328Z,0.00
2018-11-23T05:29:39.304Z,0.00
2018-11-23T05:30:39.200Z,0.00
2018-11-23T05:31:39.159Z,0.00
2018-11-23T05:32:39.184Z,0.00
2018-11-23T05:33:39.095Z,0.00
2018-11-23T05:34:39.050Z,0.00
2018-11-23T05:35:39.005Z,0.00
2018-11-23T05:36:38.951Z,0.00
2018-11-23T05:37:38.908Z,0.00
2018-11-23T05:38:38.862Z,0.00
2018-11-23T05:39:38.826Z,0.00
2018-11-23T05:40:38.771Z,0.00
2018-11-23T05:41:38.731Z,0.00
2018-11-23T05:42:38.815Z,0.00
2018-11-23T05:43:38.648Z,0.00
2018-11-23T05:44:38.612Z,0.00
2018-11-23T05:45:38.565Z,0.00
2018-11-23T05:46:38.508Z,0.00
2018-11-23T05:47:38.492Z,0.00
2018-11-23T05:48:38.433Z,0.00
2018-11-23T05:49:38.379Z,0.00
2018-11-23T05:50:38.362Z,0.00
2018-11-23T05:51:38.285Z,0.00
2018-11-23T05:52:38.248Z,0.00
2018-11-23T05:53:38.236Z,0.00
2018-11-23T05:54:38.163Z,0.00
2018-11-23T05:55:38.125Z,0.00
2018-11-23T05:56:38.064Z,0.00
2018-11-23T05:57:38.032Z,0.00
2018-11-23T05:58:37.980Z,0.00
2018-11-23T05:59:37.943Z,0.00
2018-11-23T06:00:37.903Z,0.00
2018-11-23T06:01:37.842Z,4.00
2018-11-23T06:02:37.946Z,4.00
2018-11-23T06:03:37.799Z,0.00
2018-11-23T06:04:37.750Z,4.00
2018-11-23T06:05:37.696Z,4.00
2018-11-23T06:06:42.208Z,4.00
2018-11-23T06:07:37.583Z,4.00
2018-11-23T06:08:37.551Z,4.00
2018-11-23T06:09:37.504Z,8.00
2018-11-23T06:10:37.469Z,8.00
2018-11-23T06:11:37.411Z,12.00
2018-11-23T06:12:37.365Z,16.00
2018-11-23T06:13:37.370Z,16.00
2018-11-23T06:14:37.275Z,20.00
2018-11-23T06:15:40.448Z,24.00
2018-11-23T06:16:37.177Z,28.00
2018-11-23T06:17:37.145Z,32.00
2018-11-23T06:18:37.197Z,36.00
2018-11-23T06:19:37.126Z,44.00
2018-11-23T06:20:37.062Z,52.00
2018-11-23T06:21:37.069Z,64.00
2018-11-23T06:22:36.949Z,72.00
2018-11-23T06:23:36.883Z,84.00
2018-11-23T06:24:36.836Z,96.00
2018-11-23T06:25:36.833Z,112.00
2018-11-23T06:26:36.747Z,132.00
2018-11-23T06:27:36.743Z,148.00
2018-11-23T06:28:36.682Z,164.00
2018-11-23T06:29:36.594Z,192.00
2018-11-23T06:30:36.639Z,212.00
2018-11-23T06:31:36.580Z,240.00
2018-11-23T06:32:36.468Z,264.00
2018-11-23T06:33:36.432Z,296.00
2018-11-23T06:34:36.398Z,328.00
2018-11-23T06:35:36.340Z,364.00
2018-11-23T06:36:36.310Z,400.00
2018-11-23T06:37:36.254Z,444.00
2018-11-23T06:38:36.211Z,484.00
2018-11-23T06:39:36.159Z,528.00
2018-11-23T06:40:36.137Z,572.00
2018-11-23T06:41:36.079Z,616.00
2018-11-23T06:42:41.982Z,664.00
2018-11-23T06:43:38.130Z,716.00
2018-11-23T06:44:35.936Z,772.00
2018-11-23T06:45:35.899Z,828.00
2018-11-23T06:46:35.870Z,888.00
2018-11-23T06:47:35.808Z,948.00
2018-11-23T06:48:35.763Z,1012.00
2018-11-23T06:49:35.753Z,1080.00
2018-11-23T06:50:35.669Z,1144.00
2018-11-23T06:51:35.635Z,1208.00
2018-11-23T06:52:35.588Z,1280.00
2018-11-23T06:53:35.560Z,1348.00
2018-11-23T06:54:35.489Z,1420.00
2018-11-23T06:55:35.450Z,1496.00
2018-11-23T06:56:35.407Z,1576.00
2018-11-23T06:57:35.363Z,1680.00
2018-11-23T06:58:35.325Z,1800.00
2018-11-23T06:59:35.275Z,1916.00
2018-11-23T07:00:35.221Z,2012.00
2018-11-23T07:01:35.192Z,2092.00
2018-11-23T07:02:35.145Z,2184.00
2018-11-23T07:03:35.170Z,2264.00
2018-11-23T07:04:35.053Z,2344.00
2018-11-23T07:05:35.004Z,2420.00
2018-11-23T07:06:34.971Z,2496.00
2018-11-23T07:07:35.753Z,2576.00
2018-11-23T07:08:34.912Z,2660.00
2018-11-23T07:09:34.856Z,2756.00
2018-11-23T07:10:34.785Z,2836.00
2018-11-23T07:11:34.739Z,2924.00
2018-11-23T07:12:34.705Z,3024.00
2018-11-23T07:13:34.658Z,3120.00
2018-11-23T07:14:34.606Z,3212.00
2018-11-23T07:15:34.564Z,3304.00
2018-11-23T07:16:34.520Z,3412.00
2018-11-23T07:17:34.472Z,3576.00
2018-11-23T07:18:34.451Z,3716.00
2018-11-23T07:19:34.388Z,3804.00
2018-11-23T07:20:34.349Z,3876.00
2018-11-23T07:21:34.280Z,3964.00
2018-11-23T07:22:34.283Z,4064.00
2018-11-23T07:23:34.192Z,4156.00
2018-11-23T07:24:34.150Z,4244.00
2018-11-23T07:25:34.108Z,4332.00
2018-11-23T07:26:34.066Z,4436.00
2018-11-23T07:27:34.080Z,4536.00
2018-11-23T07:28:33.982Z,4636.00
2018-11-23T07:29:33.919Z,4724.00
2018-11-23T07:30:33.897Z,4816.00
2018-11-23T07:31:33.863Z,4904.00
2018-11-23T07:32:33.789Z,5028.00
2018-11-23T07:33:33.744Z,5140.00
2018-11-23T07:34:33.709Z,5248.00
2018-11-23T07:35:33.672Z,5356.00
2018-11-23T07:36:33.638Z,5460.00
2018-11-23T07:37:33.605Z,5564.00
2018-11-23T07:38:33.636Z,5688.00
2018-11-23T07:39:33.542Z,5792.00
2018-11-23T07:40:33.433Z,5856.00
2018-11-23T07:41:33.430Z,5928.00
2018-11-23T07:42:33.353Z,6056.00
2018-11-23T07:43:33.302Z,6212.00
2018-11-23T07:44:33.288Z,6284.00
2018-11-23T07:45:33.213Z,6352.00
2018-11-23T07:46:33.187Z,6428.00
2018-11-23T07:47:33.146Z,6528.00
2018-11-23T07:48:33.105Z,6576.00
2018-11-23T07:49:33.061Z,6684.00
2018-11-23T07:50:33.002Z,6788.00
2018-11-23T07:51:39.100Z,6884.00
2018-11-23T07:52:32.911Z,7004.00
2018-11-23T07:53:32.861Z,7092.00
2018-11-23T07:54:32.832Z,7196.00
2018-11-23T07:55:32.772Z,7300.00
2018-11-23T07:56:32.748Z,7404.00
2018-11-23T07:57:32.683Z,7440.00
2018-11-23T07:58:32.628Z,7556.00
2018-11-23T07:59:32.598Z,7596.00
2018-11-23T08:00:32.546Z,7696.00
2018-11-23T08:01:32.511Z,7836.00
2018-11-23T08:02:32.467Z,7988.00
2018-11-23T08:03:32.495Z,8084.00
2018-11-23T08:04:32.397Z,8156.00
2018-11-23T08:05:32.345Z,8296.00
2018-11-23T08:06:32.307Z,8520.00
2018-11-23T08:07:32.244Z,8668.00
2018-11-23T08:08:32.184Z,8812.00
2018-11-23T08:09:32.150Z,8916.00
2018-11-23T08:10:32.113Z,9100.00
2018-11-23T08:11:32.077Z,9420.00
2018-11-23T08:12:32.028Z,9676.00
2018-11-23T08:13:31.983Z,9912.00
2018-11-23T08:14:31.932Z,9968.00
2018-11-23T08:15:31.887Z,10228.00
2018-11-23T08:16:31.839Z,10144.00
2018-11-23T08:17:31.797Z,10280.00
2018-11-23T08:18:31.756Z,10740.00
2018-11-23T08:19:31.700Z,11272.00
2018-11-23T08:20:31.669Z,11188.00
2018-11-23T08:21:31.622Z,11172.00
2018-11-23T08:22:31.573Z,11508.00
2018-11-23T08:23:31.538Z,11644.00
2018-11-23T08:24:31.502Z,11824.00
2018-11-23T08:25:31.439Z,11724.00
2018-11-23T08:26:31.394Z,11540.00
2018-11-23T08:27:31.356Z,11204.00
2018-11-23T08:28:31.317Z,12152.00
2018-11-23T08:29:31.289Z,12244.00
2018-11-23T08:30:31.230Z,12560.00
2018-11-23T08:31:31.177Z,12200.00
2018-11-23T08:32:31.136Z,12512.00
2018-11-23T08:33:31.086Z,14364.00
2018-11-23T08:34:31.071Z,13972.00
2018-11-23T08:35:31.007Z,13388.00
2018-11-23T08:36:30.965Z,13380.00
2018-11-23T08:37:30.924Z,12876.00
2018-11-23T08:38:30.912Z,13336.00
2018-11-23T08:39:30.861Z,12952.00
2018-11-23T08:40:30.817Z,12784.00
2018-11-23T08:41:30.817Z,12716.00
2018-11-23T08:42:30.698Z,12736.00
2018-11-23T08:43:30.693Z,13096.00
2018-11-23T08:44:30.631Z,13288.00
2018-11-23T08:45:30.577Z,13768.00
2018-11-23T08:46:30.542Z,13688.00
2018-11-23T08:47:30.516Z,14620.00
2018-11-23T08:48:30.534Z,14584.00
2018-11-23T08:49:30.409Z,14396.00
2018-11-23T08:50:30.501Z,14300.00
2018-11-23T08:51:30.324Z,15612.00
2018-11-23T08:52:30.291Z,15520.00
2018-11-23T08:53:30.321Z,13816.00
2018-11-23T08:54:30.207Z,13852.00
2018-11-23T08:55:30.149Z,14200.00
2018-11-23T08:56:30.119Z,13516.00
2018-11-23T08:57:30.077Z,13412.00
2018-11-23T08:58:30.041Z,13788.00
2018-11-23T08:59:29.997Z,14260.00
2018-11-23T09:00:29.958Z,14608.00
2018-11-23T09:01:29.889Z,15740.00
2018-11-23T09:02:29.855Z,16112.00
2018-11-23T09:03:29.831Z,16128.00
2018-11-23T09:04:29.766Z,15172.00
2018-11-23T09:05:29.730Z,16032.00
2018-11-23T09:06:29.690Z,16116.00
2018-11-23T09:07:29.667Z,18656.00
2018-11-23T09:08:29.599Z,19104.00
2018-11-23T09:09:29.551Z,17472.00
2018-11-23T09:10:29.535Z,17760.00
2018-11-23T09:11:29.503Z,18368.00
2018-11-23T09:12:29.435Z,17324.00
2018-11-23T09:13:29.384Z,17920.00
2018-11-23T09:14:29.412Z,17144.00
2018-11-23T09:15:29.319Z,15744.00
2018-11-23T09:16:29.286Z,16128.00
2018-11-23T09:17:29.212Z,16592.00
2018-11-23T09:18:29.313Z,17124.00
2018-11-23T09:19:29.202Z,16752.00
2018-11-23T09:20:29.202Z,16016.00
2018-11-23T09:21:29.070Z,17632.00
2018-11-23T09:22:29.135Z,17728.00
2018-11-23T09:23:29.023Z,17140.00
2018-11-23T09:24:28.939Z,16136.00
2018-11-23T09:25:28.922Z,16748.00
2018-11-23T09:26:28.853Z,17460.00
2018-11-23T09:27:28.815Z,18016.00
2018-11-23T09:28:28.785Z,16732.00
2018-11-23T09:29:28.741Z,15280.00
2018-11-23T09:30:28.689Z,13744.00
2018-11-23T09:31:28.691Z,14420.00
2018-11-23T09:32:28.646Z,16684.00
2018-11-23T09:33:28.591Z,16188.00
2018-11-23T09:34:28.515Z,15356.00
2018-11-23T09:35:28.476Z,15188.00
2018-11-23T09:36:28.472Z,14760.00
2018-11-23T09:37:28.485Z,14068.00
2018-11-23T09:38:28.415Z,14412.00
2018-11-23T09:39:28.342Z,14972.00
2018-11-23T09:40:28.297Z,15468.00
2018-11-23T09:41:28.323Z,15688.00
2018-11-23T09:42:28.298Z,15228.00
2018-11-23T09:43:28.261Z,15444.00
2018-11-23T09:44:28.183Z,14820.00
2018-11-23T09:45:28.110Z,13772.00
2018-11-23T09:46:28.072Z,13252.00
2018-11-23T09:47:27.992Z,13548.00
2018-11-23T09:48:27.963Z,14052.00
2018-11-23T09:49:27.901Z,14300.00
2018-11-23T09:50:27.893Z,14396.00
2018-11-23T09:51:27.834Z,14720.00
2018-11-23T09:52:27.790Z,14656.00
2018-11-23T09:53:27.737Z,13864.00
2018-11-23T09:54:27.700Z,14132.00
2018-11-23T09:55:27.663Z,14816.00
2018-11-23T09:56:27.617Z,15296.00
2018-11-23T09:57:27.579Z,15596.00
2018-11-23T09:58:27.544Z,15320.00
2018-11-23T09:59:27.490Z,15032.00
2018-11-23T10:00:27.478Z,14884.00
2018-11-23T10:01:27.423Z,15460.00
2018-11-23T10:02:27.377Z,17068.00
2018-11-23T10:03:27.340Z,17728.00
2018-11-23T10:04:27.317Z,16964.00
2018-11-23T10:05:27.248Z,16040.00
2018-11-23T10:06:27.249Z,15724.00
2018-11-23T10:07:27.184Z,15008.00
2018-11-23T10:08:27.129Z,14636.00
2018-11-23T10:09:27.103Z,14988.00
2018-11-23T10:10:27.050Z,15020.00
2018-11-23T10:11:27.011Z,15300.00
2018-11-23T10:12:26.990Z,15480.00
2018-11-23T10:13:26.938Z,15112.00
2018-11-23T10:14:26.879Z,14712.00
2018-11-23T10:15:26.841Z,14768.00
2018-11-23T10:16:26.804Z,14840.00
2018-11-23T10:17:26.764Z,15036.00
2018-11-23T10:18:26.717Z,15272.00
2018-11-23T10:19:26.711Z,15532.00
2018-11-23T10:20:26.627Z,15876.00
2018-11-23T10:21:26.606Z,16052.00
2018-11-23T10:22:26.564Z,16508.00
2018-11-23T10:23:26.530Z,17008.00
2018-11-23T10:24:26.502Z,16784.00
2018-11-23T10:25:26.456Z,17048.00
2018-11-23T10:26:26.463Z,17632.00
2018-11-23T10:27:26.465Z,18048.00
2018-11-23T10:28:26.333Z,18880.00
2018-11-23T10:29:26.277Z,20320.00
2018-11-23T10:30:26.236Z,20800.00
2018-11-23T10:31:26.188Z,20672.00
2018-11-23T10:32:26.157Z,20224.00
2018-11-23T10:33:28.359Z,19040.00
2018-11-23T10:34:26.067Z,18112.00
2018-11-23T10:35:26.043Z,17920.00
2018-11-23T10:36:25.980Z,18400.00
2018-11-23T10:37:25.961Z,18560.00
2018-11-23T10:38:25.940Z,18304.00
2018-11-23T10:39:25.971Z,18080.00
2018-11-23T10:40:25.832Z,18784.00
2018-11-23T10:41:25.806Z,19904.00
2018-11-23T10:42:25.751Z,21152.00
2018-11-23T10:43:25.722Z,20992.00
2018-11-23T10:44:25.719Z,21056.00
2018-11-23T10:45:25.631Z,21184.00
2018-11-23T10:46:25.592Z,20800.00
2018-11-23T10:47:25.542Z,20480.00
2018-11-23T10:48:25.502Z,20736.00
2018-11-23T10:49:25.456Z,21216.00
2018-11-23T10:50:25.428Z,21408.00
2018-11-23T10:51:25.388Z,21216.00
2018-11-23T10:52:25.380Z,20448.00
2018-11-23T10:53:25.297Z,19680.00
2018-11-23T10:54:25.265Z,18976.00
2018-11-23T10:55:25.215Z,19264.00
2018-11-23T10:56:25.193Z,20288.00
2018-11-23T10:57:25.136Z,21632.00
2018-11-23T10:58:25.116Z,21984.00
2018-11-23T10:59:25.075Z,20768.00
2018-11-23T11:00:25.035Z,20928.00
2018-11-23T11:01:25.011Z,21376.00
2018-11-23T11:02:24.962Z,20832.00
2018-11-23T11:03:24.941Z,20256.00
2018-11-23T11:04:24.889Z,20384.00
2018-11-23T11:05:24.834Z,20320.00
2018-11-23T11:06:24.794Z,20160.00
2018-11-23T11:07:24.744Z,20448.00
2018-11-23T11:08:24.744Z,20096.00
2018-11-23T11:09:24.661Z,19872.00
2018-11-23T11:10:24.627Z,19872.00
2018-11-23T11:11:24.598Z,19392.00
2018-11-23T11:12:24.547Z,19456.00
2018-11-23T11:13:24.517Z,19360.00
2018-11-23T11:14:24.473Z,20512.00
2018-11-23T11:15:24.421Z,21056.00
2018-11-23T11:16:24.393Z,20448.00
2018-11-23T11:17:24.362Z,20928.00
2018-11-23T11:18:24.303Z,20896.00
2018-11-23T11:19:24.271Z,21248.00
2018-11-23T11:20:24.234Z,22016.00
2018-11-23T11:21:24.191Z,24992.00
2018-11-23T11:22:24.163Z,21536.00
2018-11-23T11:23:24.108Z,20512.00
2018-11-23T11:24:24.091Z,19840.00
2018-11-23T11:25:24.025Z,18880.00
2018-11-23T11:26:23.993Z,17060.00
2018-11-23T11:27:23.982Z,16624.00
2018-11-23T11:28:23.939Z,16284.00
2018-11-23T11:29:23.877Z,15768.00
2018-11-23T11:30:23.860Z,15272.00
2018-11-23T11:31:23.824Z,15476.00
2018-11-23T11:32:23.768Z,16020.00
2018-11-23T11:33:23.717Z,16940.00
2018-11-23T11:34:23.680Z,18848.00
2018-11-23T11:35:23.652Z,20704.00
2018-11-23T11:36:23.604Z,22592.00
2018-11-23T11:37:23.578Z,33888.00
2018-11-23T11:38:23.568Z,26112.00
2018-11-23T11:39:23.488Z,23200.00
2018-11-23T11:40:23.443Z,21184.00
2018-11-23T11:41:23.400Z,22720.00
2018-11-23T11:42:23.364Z,27008.00
2018-11-23T11:43:23.321Z,30144.00
2018-11-23T11:44:23.353Z,28416.00
2018-11-23T11:45:23.246Z,38144.00
2018-11-23T11:46:23.196Z,35200.00
2018-11-23T11:47:23.175Z,36096.00
2018-11-23T11:48:23.232Z,36000.00
2018-11-23T11:49:23.101Z,26048.00
2018-11-23T11:50:23.054Z,22336.00
2018-11-23T11:51:23.071Z,19840.00
2018-11-23T11:52:23.010Z,17328.00
2018-11-23T11:53:22.995Z,17232.00
2018-11-23T11:54:22.912Z,18272.00
2018-11-23T11:55:22.922Z,17568.00
2018-11-23T11:56:22.835Z,19104.00
2018-11-23T11:57:22.798Z,24832.00
2018-11-23T11:58:22.760Z,22240.00
2018-11-23T11:59:22.714Z,24928.00
2018-11-23T12:00:22.708Z,21728.00
2018-11-23T12:01:22.645Z,22016.00
2018-11-23T12:02:22.611Z,15268.00
2018-11-23T12:03:22.583Z,15224.00
2018-11-23T12:04:23.076Z,19328.00
2018-11-23T12:05:22.490Z,21312.00
2018-11-23T12:06:22.472Z,18336.00
2018-11-23T12:07:22.410Z,18592.00
2018-11-23T12:08:22.389Z,20672.00
2018-11-23T12:09:22.338Z,18720.00
2018-11-23T12:10:22.322Z,17040.00
2018-11-23T12:11:22.282Z,17156.00
2018-11-23T12:12:22.266Z,18880.00
2018-11-23T12:13:22.260Z,17032.00
2018-11-23T12:14:22.167Z,19488.00
2018-11-23T12:15:22.120Z,15852.00
2018-11-23T12:16:22.082Z,18912.00
2018-11-23T12:17:22.078Z,15340.00
2018-11-23T12:18:22.070Z,15240.00
2018-11-23T12:19:22.008Z,15764.00
2018-11-23T12:20:21.964Z,16560.00
2018-11-23T12:21:21.893Z,16912.00
2018-11-23T12:22:21.870Z,16976.00
2018-11-23T12:23:21.811Z,16432.00
2018-11-23T12:24:21.822Z,15720.00
2018-11-23T12:25:21.783Z,14860.00
2018-11-23T12:26:21.732Z,14876.00
2018-11-23T12:27:21.713Z,15008.00
2018-11-23T12:28:21.628Z,16292.00
2018-11-23T12:29:21.590Z,15552.00
2018-11-23T12:30:21.585Z,15856.00
2018-11-23T12:31:21.530Z,16348.00
2018-11-23T12:32:21.513Z,16452.00
2018-11-23T12:33:21.462Z,16268.00